createdAt,value
2018-06-16T04:59:57.995Z,18.80
2018-06-16T05:02:28.106Z,19.10
2018-06-16T05:04:58.916Z,19.00
2018-06-16T05:07:28.988Z,19.00
2018-06-16T05:09:58.415Z,19.00
2018-06-16T05:12:28.679Z,19.00
2018-06-16T05:15:00.105Z,19.00
2018-06-16T05:17:40.159Z,19.00
2018-06-16T05:20:11.551Z,19.00
2018-06-16T05:22:44.905Z,19.10
2018-06-16T05:25:15.713Z,19.30
2018-06-16T05:27:45.335Z,19.30
2018-06-16T05:30:15.272Z,19.20
2018-06-16T05:32:45.782Z,19.30
2018-06-16T05:35:17.939Z,19.30
2018-06-16T05:37:50.196Z,19.30
2018-06-16T05:40:20.701Z,19.50
2018-06-16T05:42:50.550Z,19.50
2018-06-16T05:45:22.669Z,19.60
2018-06-16T05:47:56.242Z,19.70
2018-06-16T05:50:26.977Z,19.90
2018-06-16T05:52:58.536Z,20.10
2018-06-16T05:55:29.810Z,20.30
2018-06-16T05:57:59.558Z,20.50
2018-06-16T06:00:30.126Z,20.60
2018-06-16T06:02:59.244Z,20.70
2018-06-16T06:05:29.007Z,20.80
2018-06-16T06:08:01.568Z,21.00
2018-06-16T06:10:32.238Z,21.10
2018-06-16T06:13:01.435Z,21.30
2018-06-16T06:15:30.623Z,21.50
2018-06-16T06:18:00.384Z,21.60
2018-06-16T06:20:30.531Z,21.80
2018-06-16T06:23:02.816Z,21.70
2018-06-16T06:25:37.946Z,21.80
2018-06-16T06:28:07.770Z,21.80
2018-06-16T06:30:38.221Z,21.80
2018-06-16T06:33:09.171Z,21.90
2018-06-16T06:35:41.479Z,22.20
2018-06-16T06:38:14.130Z,22.30
2018-06-16T06:40:48.068Z,22.40
2018-06-16T06:43:17.905Z,22.60
2018-06-16T06:45:50.077Z,22.60
2018-06-16T06:48:21.975Z,22.70
2018-06-16T06:50:53.759Z,22.80
2018-06-16T06:53:26.136Z,22.90
2018-06-16T06:55:58.563Z,23.00
2018-06-16T06:58:28.459Z,23.20
2018-06-16T07:01:00.723Z,23.20
2018-06-16T07:03:31.276Z,23.20
2018-06-16T07:06:00.376Z,23.20
2018-06-16T07:08:29.674Z,23.30
2018-06-16T07:11:00.162Z,23.30
2018-06-16T07:13:31.987Z,23.40
2018-06-16T07:16:02.021Z,23.60
2018-06-16T07:18:32.161Z,23.70
2018-06-16T07:21:04.822Z,23.80
2018-06-16T07:23:34.376Z,23.90
2018-06-16T07:26:05.142Z,23.90
2018-06-16T07:28:38.000Z,23.90
2018-06-16T07:31:12.320Z,23.80
2018-06-16T07:33:41.503Z,23.70
2018-06-16T07:36:15.596Z,23.70
2018-06-16T07:38:46.591Z,23.70
2018-06-16T07:41:20.490Z,23.80
2018-06-16T07:43:54.453Z,23.90
2018-06-16T07:46:26.540Z,24.20
